Time;durP1;ratioP1;P1;durP2;ratioP2;P2;SDS_P1;SDS_P2;PMS_P1;PMS_P2;Temp;Humidity;BMP_temperature;BMP_pressure;BME280_temperature;BME280_humidity;BME280_pressure;Samples;Min_cycle;Max_cycle;Signal;HPM_P1;HPM_P2
2021/01/27 00:01:11;;;;;;;;;;;;;;;6.81;51.83;100812.75;4846577;29;19928;-75
2021/01/27 00:03:39;;;;;;;;;;;;;;;6.83;51.46;100823.28;4837831;29;19936;-75
2021/01/27 00:06:06;;;;;;;;;;;;;;;6.86;51.29;100815.34;4827148;29;19997;-76
2021/01/27 00:08:33;;;;;;;;;;;;;;;6.91;51.53;100818.81;4829579;29;19939;-75
2021/01/27 00:11:00;;;;;;;;;;;;;;;6.94;51.35;100816.13;4823643;29;19933;-75
2021/01/27 00:13:27;;;;;;;;;;;;;;;6.97;51.00;100810.84;4824226;29;19936;-76
2021/01/27 00:15:54;;;;;;;;;;;;;;;7.05;50.96;100809.88;4830124;29;19932;-75
2021/01/27 00:18:21;;;;;;;;;;;;;;;7.08;50.99;100821.25;4829758;29;20933;-76
2021/01/27 00:20:48;;;;;;;;;;;;;;;7.10;51.10;100818.59;4826476;29;20418;-76
2021/01/27 00:23:16;;;;;;;;;;;;;;;7.10;50.70;100813.34;4825049;29;19928;-75
2021/01/27 00:25:43;;;;;;;;;;;;;;;7.10;50.65;100815.97;4826221;29;19929;-76
2021/01/27 00:28:10;;;;;;;;;;;;;;;7.11;50.82;100809.81;4824173;29;20501;-76
2021/01/27 00:30:38;;;;;;;;;;;;;;;7.11;50.96;100815.09;4831041;29;19943;-76
2021/01/27 00:33:06;;;;;;;;;;;;;;;7.09;51.04;100825.63;4829618;29;19981;-76
2021/01/27 00:35:35;;;;;;;;;;;;;;;7.10;50.86;100822.09;4827050;29;19999;-75
2021/01/27 00:38:07;;;;;;;;;;;;;;;7.08;50.90;100820.38;4826145;29;19944;-76
2021/01/27 00:40:35;;;;;;;;;;;;;;;7.04;50.98;100827.44;4822317;29;19953;-75
2021/01/27 00:43:02;;;;;;;;;;;;;;;7.02;51.10;100820.44;4829507;29;19939;-76
2021/01/27 00:45:29;;;;;;;;;;;;;;;7.02;50.79;100810.78;4829431;29;19941;-75
2021/01/27 00:47:56;;;;;;;;;;;;;;;7.00;51.20;100820.47;4828885;29;20027;-75
2021/01/27 00:50:24;;;;;;;;;;;;;;;6.98;50.84;100812.56;4830806;29;20024;-75
2021/01/27 00:52:51;;;;;;;;;;;;;;;6.98;50.93;100803.81;4813363;29;19932;-75
2021/01/27 00:55:23;;;;;;;;;;;;;;;6.98;50.59;100809.94;4824079;29;19985;-76
2021/01/27 00:57:53;;;;;;;;;;;;;;;6.96;50.86;100802.97;4807541;29;19936;-75
2021/01/27 01:00:22;;;;;;;;;;;;;;;6.96;50.68;100817.00;4828762;29;19951;-75
2021/01/27 01:02:49;;;;;;;;;;;;;;;6.98;50.85;100806.47;4829528;29;19933;-76
2021/01/27 01:05:18;;;;;;;;;;;;;;;7.01;50.91;100809.03;4832662;29;20001;-76
2021/01/27 01:07:46;;;;;;;;;;;;;;;7.01;50.93;100809.03;4842783;29;19936;-76
2021/01/27 01:10:14;;;;;;;;;;;;;;;7.05;50.57;100810.78;4845401;29;19932;-75
2021/01/27 01:12:41;;;;;;;;;;;;;;;7.09;50.70;100811.59;4834693;29;20004;-76
2021/01/27 01:15:10;;;;;;;;;;;;;;;7.14;50.66;100815.03;4811995;29;19932;-75
2021/01/27 01:17:37;;;;;;;;;;;;;;;7.19;50.42;100809.72;4829327;29;19944;-75
2021/01/27 01:20:06;;;;;;;;;;;;;;;7.27;50.33;100805.22;4842773;29;19958;-75
2021/01/27 01:22:33;;;;;;;;;;;;;;;7.29;50.38;100809.59;4829862;29;19944;-75
2021/01/27 01:24:59;;;;;;;;;;;;;;;7.34;49.96;100806.91;4836675;29;20420;-75
2021/01/27 01:27:27;;;;;;;;;;;;;;;7.40;49.92;100806.81;4831780;29;20001;-75
2021/01/27 01:29:54;;;;;;;;;;;;;;;7.46;50.09;100803.25;4828366;29;19929;-75
2021/01/27 01:32:22;;;;;;;;;;;;;;;7.51;50.02;100809.28;4845520;29;19931;-75
2021/01/27 01:34:49;;;;;;;;;;;;;;;7.57;49.94;100816.25;4828242;29;19928;-75
2021/01/27 01:37:16;;;;;;;;;;;;;;;7.60;50.02;100809.19;4821423;29;19936;-75
2021/01/27 01:39:42;;;;;;;;;;;;;;;7.61;49.87;100808.28;4819200;29;19953;-75
2021/01/27 01:42:09;;;;;;;;;;;;;;;7.62;50.01;100807.38;4819089;29;19988;-75
2021/01/27 01:44:36;;;;;;;;;;;;;;;7.61;49.87;100800.38;4828630;29;19945;-75
2021/01/27 01:47:03;;;;;;;;;;;;;;;7.63;49.91;100798.59;4825489;29;19968;-75
2021/01/27 01:49:31;;;;;;;;;;;;;;;7.64;49.96;100797.72;4828867;29;19932;-76
2021/01/27 01:52:01;;;;;;;;;;;;;;;7.68;49.71;100798.50;4822433;29;19936;-76
2021/01/27 01:54:34;;;;;;;;;;;;;;;7.71;49.37;100795.84;4819340;29;19940;-75
2021/01/27 01:57:02;;;;;;;;;;;;;;;7.71;49.83;100800.22;4825369;29;19937;-76
2021/01/27 01:59:32;;;;;;;;;;;;;;;7.70;49.52;100793.25;4824678;29;19936;-76
2021/01/27 02:02:01;;;;;;;;;;;;;;;7.68;49.81;100795.88;4824305;29;19952;-76
2021/01/27 02:04:32;;;;;;;;;;;;;;;7.72;49.53;100796.72;4824215;29;19932;-76
2021/01/27 02:07:00;;;;;;;;;;;;;;;7.71;50.19;100795.84;4821430;29;20293;-75
2021/01/27 02:09:48;;;;;;;;;;;;;;;7.70;49.44;100782.72;4825279;29;20104;-76
2021/01/27 02:12:26;;;;;;;;;;;;;;;7.72;49.52;100791.44;4822236;29;20096;-76
2021/01/27 02:15:09;;;;;;;;;;;;;;;7.70;49.96;100785.34;4825610;29;19962;-75
2021/01/27 02:17:41;;;;;;;;;;;;;;;7.72;49.80;100783.56;4824571;29;20376;-75
2021/01/27 02:20:21;;;;;;;;;;;;;;;7.70;50.16;100785.34;4821837;29;19936;-76
2021/01/27 02:23:15;;;;;;;;;;;;;;;7.69;49.97;100779.19;4822866;29;19937;-75
2021/01/27 02:25:55;;;;;;;;;;;;;;;7.69;50.10;100773.06;4822949;29;19937;-75
2021/01/27 02:28:35;;;;;;;;;;;;;;;7.71;49.76;100780.06;4821505;29;19936;-76
2021/01/27 02:31:10;;;;;;;;;;;;;;;7.68;50.09;100774.81;4827030;29;20009;-76
2021/01/27 02:33:48;;;;;;;;;;;;;;;7.68;49.77;100782.72;4826354;29;20009;-77
2021/01/27 02:36:22;;;;;;;;;;;;;;;7.68;50.27;100785.34;4821579;29;19969;-76
2021/01/27 02:38:53;;;;;;;;;;;;;;;7.67;49.85;100780.09;4825320;29;19937;-77
2021/01/27 02:41:25;;;;;;;;;;;;;;;7.64;50.48;100775.75;4817849;29;20288;-75
2021/01/27 02:43:55;;;;;;;;;;;;;;;7.65;49.85;100775.72;4825433;29;19968;-76
2021/01/27 02:46:27;;;;;;;;;;;;;;;7.65;50.27;100769.59;4826256;29;19966;-77
2021/01/27 02:49:01;;;;;;;;;;;;;;;7.63;50.04;100767.00;4825649;29;19942;-75
2021/01/27 02:51:32;;;;;;;;;;;;;;;7.63;50.14;100774.91;4826920;29;19960;-76
2021/01/27 02:54:03;;;;;;;;;;;;;;;7.62;50.12;100769.66;4826431;29;19986;-76
2021/01/27 02:56:33;;;;;;;;;;;;;;;7.60;50.51;100769.69;4828849;29;19928;-75
2021/01/27 02:59:02;;;;;;;;;;;;;;;7.60;50.05;100766.16;4826809;29;19936;-76
2021/01/27 03:01:33;;;;;;;;;;;;;;;7.58;50.63;100779.38;4828354;29;19936;-76
2021/01/27 03:04:03;;;;;;;;;;;;;;;7.57;50.18;100767.09;4826269;29;19943;-76
2021/01/27 03:06:30;;;;;;;;;;;;;;;7.56;49.96;100769.75;4827157;29;19999;-76
2021/01/27 03:09:00;;;;;;;;;;;;;;;7.58;50.40;100758.31;4829877;29;19932;-76
2021/01/27 03:11:29;;;;;;;;;;;;;;;7.58;50.30;100760.06;4813225;29;19933;-76
2021/01/27 03:13:57;;;;;;;;;;;;;;;7.61;50.54;100760.03;4839173;29;20451;-76
2021/01/27 03:16:27;;;;;;;;;;;;;;;7.62;50.51;100756.50;4846139;29;20005;-76
2021/01/27 03:18:58;;;;;;;;;;;;;;;7.62;50.49;100757.34;4834959;29;19971;-76
2021/01/27 03:21:28;;;;;;;;;;;;;;;7.64;50.30;100754.69;4811970;29;20279;-76
2021/01/27 03:24:00;;;;;;;;;;;;;;;7.66;50.50;100755.56;4829581;29;20449;-76
2021/01/27 03:26:28;;;;;;;;;;;;;;;7.66;50.25;100760.81;4813310;29;19932;-75
2021/01/27 03:28:58;;;;;;;;;;;;;;;7.71;50.78;100758.09;4828922;29;19928;-76
2021/01/27 03:31:25;;;;;;;;;;;;;;;7.73;49.90;100749.28;4827379;29;19936;-76
2021/01/27 03:33:55;;;;;;;;;;;;;;;7.75;50.27;100758.03;4823032;29;19943;-76
2021/01/27 03:36:25;;;;;;;;;;;;;;;7.79;50.30;100761.50;4831118;29;19942;-76
2021/01/27 03:38:53;;;;;;;;;;;;;;;7.81;50.15;100762.34;4827662;29;19952;-76
2021/01/27 03:41:23;;;;;;;;;;;;;;;7.83;50.32;100763.19;4825251;29;19929;-76
2021/01/27 03:43:55;;;;;;;;;;;;;;;7.83;50.30;100760.56;4829604;29;19971;-76
2021/01/27 03:46:24;;;;;;;;;;;;;;;7.86;49.81;100762.28;4820866;29;19960;-77
2021/01/27 03:48:54;;;;;;;;;;;;;;;7.85;50.12;100764.03;4822150;29;19932;-76
2021/01/27 03:51:23;;;;;;;;;;;;;;;7.88;50.19;100764.00;4832251;29;19969;-75
2021/01/27 03:53:51;;;;;;;;;;;;;;;7.89;49.77;100767.50;4828098;29;19936;-76
2021/01/27 03:56:21;;;;;;;;;;;;;;;7.88;50.23;100766.63;4826588;29;19929;-76
2021/01/27 03:58:49;;;;;;;;;;;;;;;7.89;50.51;100772.75;4829651;29;19959;-76
2021/01/27 04:01:17;;;;;;;;;;;;;;;7.85;50.03;100771.94;4824793;29;20445;-76
2021/01/27 04:03:45;;;;;;;;;;;;;;;7.88;50.28;100771.00;4823626;29;19936;-76
2021/01/27 04:06:14;;;;;;;;;;;;;;;7.87;50.09;100766.66;4823701;29;20035;-76
2021/01/27 04:08:41;;;;;;;;;;;;;;;7.89;49.79;100767.50;4827252;29;19963;-76
2021/01/27 04:11:09;;;;;;;;;;;;;;;7.86;50.79;100771.03;4827887;29;19944;-76
2021/01/27 04:13:36;;;;;;;;;;;;;;;7.88;50.00;100765.75;4824723;29;19957;-76
2021/01/27 04:16:04;;;;;;;;;;;;;;;7.86;50.19;100759.66;4829193;29;19937;-76
2021/01/27 04:18:31;;;;;;;;;;;;;;;7.84;50.24;100764.94;4827304;29;19989;-75
2021/01/27 04:20:58;;;;;;;;;;;;;;;7.84;50.36;100754.41;4828097;29;19942;-75
2021/01/27 04:23:25;;;;;;;;;;;;;;;7.82;50.53;100753.56;4827572;29;19932;-75
2021/01/27 04:25:52;;;;;;;;;;;;;;;7.81;50.50;100754.44;4825569;29;20062;-75
2021/01/27 04:28:19;;;;;;;;;;;;;;;7.81;50.36;100741.28;4825407;29;20489;-76
2021/01/27 04:30:47;;;;;;;;;;;;;;;7.80;50.22;100743.03;4822271;29;19992;-76
2021/01/27 04:33:14;;;;;;;;;;;;;;;7.80;50.06;100745.69;4827071;29;19932;-76
2021/01/27 04:35:42;;;;;;;;;;;;;;;7.79;50.67;100748.34;4826016;29;19943;-76
2021/01/27 04:38:12;;;;;;;;;;;;;;;7.78;50.87;100751.88;4824238;29;20376;-75
2021/01/27 04:40:40;;;;;;;;;;;;;;;7.77;50.42;100750.13;4828849;29;19932;-75
2021/01/27 04:43:13;;;;;;;;;;;;;;;7.75;50.38;100751.91;4823405;29;19937;-76
2021/01/27 04:45:42;;;;;;;;;;;;;;;7.75;50.29;100751.91;4825600;29;19986;-76
2021/01/27 04:48:12;;;;;;;;;;;;;;;7.74;50.64;100751.03;4824226;29;20889;-75
2021/01/27 04:50:44;;;;;;;;;;;;;;;7.72;50.99;100741.41;4825798;29;19935;-76
2021/01/27 04:53:24;;;;;;;;;;;;;;;7.70;50.78;100737.97;4825376;29;19929;-75
2021/01/27 04:56:15;;;;;;;;;;;;;;;7.68;51.17;100732.69;4827436;29;19938;-76
2021/01/27 04:58:47;;;;;;;;;;;;;;;7.67;50.79;100732.72;4810382;29;19937;-76
2021/01/27 05:01:31;;;;;;;;;;;;;;;7.64;50.63;100729.25;4822509;29;20008;-76
2021/01/27 05:04:15;;;;;;;;;;;;;;;7.65;50.63;100728.34;4827044;29;19936;-76
2021/01/27 05:06:47;;;;;;;;;;;;;;;7.66;51.06;100723.97;4814045;29;20393;-76
2021/01/27 05:09:15;;;;;;;;;;;;;;;7.66;51.11;100729.22;4828627;29;20687;-76
2021/01/27 05:11:44;;;;;;;;;;;;;;;7.66;50.38;100723.97;4809100;29;19936;-76
2021/01/27 05:14:13;;;;;;;;;;;;;;;7.70;51.00;100725.66;4814595;29;19937;-75
2021/01/27 05:16:40;;;;;;;;;;;;;;;7.72;50.75;100726.50;4814550;29;19959;-76
2021/01/27 05:19:07;;;;;;;;;;;;;;;7.77;50.81;100715.88;4826643;29;20002;-75
2021/01/27 05:21:36;;;;;;;;;;;;;;;7.80;50.79;100723.72;4823930;29;20666;-75
2021/01/27 05:24:06;;;;;;;;;;;;;;;7.82;50.71;100706.16;4825670;29;19929;-75
2021/01/27 05:26:35;;;;;;;;;;;;;;;7.87;50.20;100712.22;4808321;29;19936;-75
2021/01/27 05:29:04;;;;;;;;;;;;;;;7.90;50.28;100701.59;4823833;29;20016;-76
2021/01/27 05:31:50;;;;;;;;;;;;;;;7.91;50.31;100703.34;4821033;29;19940;-75
2021/01/27 05:34:26;;;;;;;;;;;;;;;7.95;50.53;100697.13;4823049;29;19971;-75
2021/01/27 05:36:53;;;;;;;;;;;;;;;7.97;50.08;100699.72;4827027;29;19928;-76
2021/01/27 05:39:26;;;;;;;;;;;;;;;8.00;50.12;100697.06;4832031;29;19933;-75
2021/01/27 05:42:04;;;;;;;;;;;;;;;8.01;50.42;100701.44;4823951;29;19936;-76
2021/01/27 05:44:33;;;;;;;;;;;;;;;8.02;50.12;100700.53;4825132;29;20005;-76
2021/01/27 05:47:14;;;;;;;;;;;;;;;8.03;50.06;100707.53;4824864;29;20409;-76
2021/01/27 05:49:42;;;;;;;;;;;;;;;8.06;50.24;100702.22;4827626;29;19943;-76
2021/01/27 05:52:13;;;;;;;;;;;;;;;8.03;50.68;100696.16;4824468;29;19967;-76
2021/01/27 05:54:41;;;;;;;;;;;;;;;7.98;50.82;100697.09;4827458;29;20653;-76
2021/01/27 05:57:11;;;;;;;;;;;;;;;8.03;50.83;100697.00;4821667;29;19988;-75
2021/01/27 05:59:38;;;;;;;;;;;;;;;8.03;50.36;100699.63;4822147;29;20004;-75
2021/01/27 06:02:06;;;;;;;;;;;;;;;8.02;50.24;100697.88;4827154;29;19935;-75
2021/01/27 06:04:35;;;;;;;;;;;;;;;8.00;50.54;100693.53;4824680;29;19933;-75
2021/01/27 06:07:04;;;;;;;;;;;;;;;8.00;50.43;100694.44;4826414;29;20802;-75
2021/01/27 06:09:32;;;;;;;;;;;;;;;8.02;50.77;100691.75;4822692;29;19997;-76
2021/01/27 06:12:00;;;;;;;;;;;;;;;7.97;50.77;100695.34;4819488;29;19936;-77
2021/01/27 06:14:28;;;;;;;;;;;;;;;7.98;50.52;100699.72;4821487;29;20700;-77
2021/01/27 06:16:57;;;;;;;;;;;;;;;7.98;51.26;100696.22;4826718;29;19936;-75
2021/01/27 06:20:07;;;;;;;;;;;;;;;7.97;50.82;100691.81;4826194;29;19963;-77
2021/01/27 06:29:28;;;;;;;;;;;;;;;;;;;;;
2021/01/27 07:01:10;;;;;;;;;;;;;;;;;;;;;
2021/01/27 07:38:25;;;;;;;;;;;;;;;8.35;50.52;100687.63;4563820;31;20044;-76
2021/01/27 07:40:56;;;;;;;;;;;;;;;8.40;50.61;100695.47;4613621;30;19939;-77
2021/01/27 07:43:26;;;;;;;;;;;;;;;8.41;50.33;100687.50;4657441;30;19974;-77
2021/01/27 07:45:57;;;;;;;;;;;;;;;8.45;49.94;100683.94;4661647;30;19940;-77
2021/01/27 07:48:29;;;;;;;;;;;;;;;8.49;50.41;100678.63;4660753;30;19936;-77
2021/01/27 07:55:13;;;;;;;;;;;;;;;8.56;50.12;100685.50;4660716;30;20045;-77
2021/01/27 08:06:03;;;;;;;;;;;;;;;8.66;49.47;100680.94;4708207;30;21119;-78
2021/01/27 08:11:30;;;;;;;;;;;;;;;8.72;49.67;100680.78;5945311;23;19933;31
2021/01/27 08:51:55;;;;;;;;;;;;;;;8.72;50.33;100680.78;4760741;29;19937;-76
2021/01/27 08:54:27;;;;;;;;;;;;;;;8.69;49.92;100678.22;4769988;29;19976;-81
2021/01/27 10:08:19;;;;;;;;;;;;;;;9.44;48.72;100671.28;5530716;23;19994;-78
2021/01/27 10:11:05;;;;;;;;;;;;;;;9.36;49.69;100667.94;4860347;29;20718;-78
2021/01/27 10:13:33;;;;;;;;;;;;;;;9.35;49.81;100670.63;4855681;29;19975;-79
2021/01/27 10:16:04;;;;;;;;;;;;;;;9.39;49.45;100669.63;4855886;29;19955;-78
2021/01/27 10:45:17;;;;;;;;;;;;;;;9.52;46.02;100657.00;4813373;29;19936;-78
2021/01/27 10:47:50;;;;;;;;;;;;;;;9.51;46.81;100652.63;4817507;29;20634;-78
2021/01/27 10:50:17;;;;;;;;;;;;;;;9.49;46.93;100651.81;4816704;29;20016;-78
2021/01/27 10:53:02;;;;;;;;;;;;;;;9.44;46.81;100642.22;4819997;29;19996;-77
2021/01/27 10:55:30;;;;;;;;;;;;;;;9.46;47.58;100642.19;4818643;29;19933;-78
2021/01/27 10:58:05;;;;;;;;;;;;;;;9.42;47.40;100648.47;4812851;29;23284;-78
2021/01/27 11:00:33;;;;;;;;;;;;;;;9.43;47.63;100647.56;4819156;29;19928;-77
2021/01/27 11:11:30;;;;;;;;;;;;;;;9.37;48.42;100632.72;4852313;29;20616;-77
2021/01/27 11:33:17;;;;;;;;;;;;;;;9.43;49.28;100624.66;4825603;29;19939;-77
2021/01/27 12:29:09;;;;;;;;;;;;;;;8.91;51.38;100597.72;4804749;29;19944;-79
2021/01/27 12:35:37;;;;;;;;;;;;;;;8.86;51.63;100594.31;4803051;29;19943;-77
2021/01/27 12:38:04;;;;;;;;;;;;;;;8.80;51.48;100592.69;4799212;29;19939;-80
2021/01/27 12:40:31;;;;;;;;;;;;;;;8.77;51.62;100592.78;4797566;29;19948;-78
2021/01/27 12:42:58;;;;;;;;;;;;;;;8.73;52.21;100591.09;4801580;29;19976;-79
2021/01/27 12:45:27;;;;;;;;;;;;;;;8.73;51.88;100593.75;4804279;29;19933;-76
2021/01/27 12:47:55;;;;;;;;;;;;;;;8.70;52.51;100592.94;4806091;29;19943;-77
2021/01/27 12:50:22;;;;;;;;;;;;;;;8.70;52.05;100587.66;4803787;29;19959;-79
2021/01/27 12:52:49;;;;;;;;;;;;;;;8.69;52.27;100585.91;4798665;29;19961;-79
2021/01/27 12:55:19;;;;;;;;;;;;;;;8.68;52.20;100585.06;4802127;29;19952;-78
2021/01/27 12:57:46;;;;;;;;;;;;;;;8.68;52.56;100579.78;4805256;29;19933;-78
2021/01/27 13:00:15;;;;;;;;;;;;;;;8.68;52.11;100587.69;4803679;29;19937;-78
2021/01/27 13:02:43;;;;;;;;;;;;;;;8.62;52.59;100583.41;4802994;29;19976;-79
2021/01/27 13:05:11;;;;;;;;;;;;;;;8.60;52.27;100589.63;4797783;29;20477;-78
2021/01/27 13:07:39;;;;;;;;;;;;;;;8.60;52.48;100584.34;4796458;29;19937;-78
2021/01/27 13:10:08;;;;;;;;;;;;;;;8.56;52.25;100590.59;4802586;29;20605;-80
2021/01/27 13:12:36;;;;;;;;;;;;;;;8.53;52.70;100583.59;4802436;29;20390;-78
2021/01/27 13:15:03;;;;;;;;;;;;;;;8.53;52.56;100577.47;4803820;29;19937;-78
2021/01/27 13:17:43;;;;;;;;;;;;;;;8.51;52.65;100574.00;4805394;29;19943;-79
2021/01/27 13:20:14;;;;;;;;;;;;;;;8.49;52.88;100574.03;4798578;29;20417;-79
2021/01/27 13:22:42;;;;;;;;;;;;;;;8.45;52.77;100574.97;4797432;29;21186;-78
2021/01/27 13:25:11;;;;;;;;;;;;;;;8.45;53.15;100574.97;4802089;29;20059;-77
2021/01/27 13:27:56;;;;;;;;;;;;;;;8.40;52.70;100584.75;4800272;29;22651;-78
2021/01/27 13:30:25;;;;;;;;;;;;;;;8.40;53.20;100582.09;4801233;29;20401;-78
2021/01/27 13:32:53;;;;;;;;;;;;;;;8.39;53.33;100583.00;4785970;29;19937;-77
2021/01/27 13:35:21;;;;;;;;;;;;;;;8.35;53.09;100582.19;4798396;29;19947;-77
2021/01/27 13:37:48;;;;;;;;;;;;;;;8.34;53.30;100576.94;4796662;29;20023;-77
2021/01/27 13:40:15;;;;;;;;;;;;;;;8.33;53.50;100580.50;4801915;29;19963;-77
2021/01/27 13:42:42;;;;;;;;;;;;;;;8.29;53.39;100579.69;4799907;29;19945;-77
2021/01/27 13:45:10;;;;;;;;;;;;;;;8.44;52.27;100578.50;4800126;29;19944;-78
2021/01/27 13:47:39;;;;;;;;;;;;;;;8.58;50.11;100581.75;4798977;29;20027;-77
2021/01/27 13:50:09;;;;;;;;;;;;;;;8.68;49.23;100563.06;4794707;29;19933;-77
2021/01/27 13:52:36;;;;;;;;;;;;;;;8.74;48.25;100563.81;4799666;29;20046;-77
2021/01/27 13:55:04;;;;;;;;;;;;;;;8.79;47.21;100555.81;4802576;29;19937;-77
2021/01/27 13:57:31;;;;;;;;;;;;;;;8.85;46.46;100554.78;4800355;29;20772;-77
2021/01/27 13:59:58;;;;;;;;;;;;;;;8.94;45.57;100558.09;4799951;29;19944;-77
2021/01/27 14:02:25;;;;;;;;;;;;;;;9.02;45.23;100557.91;4800929;29;20723;-78
2021/01/27 14:04:52;;;;;;;;;;;;;;;9.03;45.05;100559.63;4797784;29;20379;-77
2021/01/27 14:07:20;;;;;;;;;;;;;;;8.98;44.60;100558.84;4798902;29;19962;-77
2021/01/27 14:09:47;;;;;;;;;;;;;;;8.86;45.73;100561.81;4800849;29;19933;-77
2021/01/27 14:12:14;;;;;;;;;;;;;;;8.77;46.61;100553.19;4802646;29;21004;-77
2021/01/27 14:14:41;;;;;;;;;;;;;;;8.74;47.49;100557.69;4802581;29;19943;-77
2021/01/27 14:17:08;;;;;;;;;;;;;;;8.72;47.31;100555.06;4797503;29;19944;-78
2021/01/27 14:19:39;;;;;;;;;;;;;;;8.71;47.82;100553.34;4797429;29;20011;-77
2021/01/27 14:22:08;;;;;;;;;;;;;;;8.70;48.07;100548.09;4798845;29;19933;-78
2021/01/27 14:24:35;;;;;;;;;;;;;;;8.68;48.29;100556.06;4801491;29;19944;-76
2021/01/27 14:27:02;;;;;;;;;;;;;;;8.68;48.92;100556.06;4800849;29;19937;-77
2021/01/27 14:29:29;;;;;;;;;;;;;;;8.67;48.69;100549.03;4815952;29;20818;-77
2021/01/27 14:31:57;;;;;;;;;;;;;;;8.66;49.18;100546.44;4796247;29;20031;-77
2021/01/27 14:34:24;;;;;;;;;;;;;;;8.65;49.93;100542.91;4795714;29;20013;-77
2021/01/27 14:36:51;;;;;;;;;;;;;;;8.63;49.61;100540.31;4799578;29;20024;-77
2021/01/27 14:39:18;;;;;;;;;;;;;;;8.63;49.48;100544.75;4800704;29;20303;-76
2021/01/27 14:41:46;;;;;;;;;;;;;;;8.61;50.27;100541.25;4795576;29;19937;-77
2021/01/27 14:44:16;;;;;;;;;;;;;;;8.61;50.41;100531.56;4807062;29;20348;-76
2021/01/27 14:46:47;;;;;;;;;;;;;;;8.59;50.35;100532.53;4795984;29;19937;-76
2021/01/27 14:49:17;;;;;;;;;;;;;;;8.56;50.90;100529.94;4762275;29;19937;-76
2021/01/27 14:51:45;;;;;;;;;;;;;;;8.56;50.48;100532.56;4800157;29;19932;-78
2021/01/27 14:54:12;;;;;;;;;;;;;;;8.55;51.14;100534.34;4812546;29;20728;-78
2021/01/27 14:56:39;;;;;;;;;;;;;;;8.55;51.01;100530.84;4801724;29;20751;-80
2021/01/27 14:59:07;;;;;;;;;;;;;;;8.51;50.60;100535.34;4802314;29;20363;-78
2021/01/27 15:01:34;;;;;;;;;;;;;;;8.50;51.49;100530.06;4799635;29;19985;-78
2021/01/27 15:04:01;;;;;;;;;;;;;;;8.49;51.36;100528.38;4794178;29;19937;-77
2021/01/27 15:06:28;;;;;;;;;;;;;;;8.48;50.91;100530.09;4802440;29;20847;-78
2021/01/27 15:08:55;;;;;;;;;;;;;;;8.47;51.34;100528.41;4802607;29;20655;-78
2021/01/27 15:11:21;;;;;;;;;;;;;;;8.45;51.73;100527.53;4805684;29;20382;-76
2021/01/27 15:13:48;;;;;;;;;;;;;;;8.44;51.88;100525.78;4805118;29;19997;-79
2021/01/27 15:16:16;;;;;;;;;;;;;;;8.43;51.99;100521.41;4801098;29;19933;-78
2021/01/27 15:18:43;;;;;;;;;;;;;;;8.41;52.09;100524.06;4815046;29;19929;-77
2021/01/27 15:21:10;;;;;;;;;;;;;;;8.39;51.77;100520.63;4814240;29;20318;-79
2021/01/27 15:23:37;;;;;;;;;;;;;;;8.39;52.16;100522.38;4814728;29;19988;-84
2021/01/27 15:26:04;;;;;;;;;;;;;;;8.36;51.70;100522.44;4803631;29;19937;-78
2021/01/27 15:28:31;;;;;;;;;;;;;;;8.36;52.22;100519.81;4801366;29;20347;-78
2021/01/27 15:30:58;;;;;;;;;;;;;;;8.34;51.81;100516.34;4798803;29;20299;-87
2021/01/27 15:33:26;;;;;;;;;;;;;;;8.34;52.17;100521.59;4801252;29;20436;-79
2021/01/27 15:35:54;;;;;;;;;;;;;;;8.30;51.98;100513.78;4801180;29;19933;-79
2021/01/27 15:38:21;;;;;;;;;;;;;;;8.29;52.38;100511.19;4802835;29;19940;-79
2021/01/27 15:40:48;;;;;;;;;;;;;;;8.28;52.70;100504.16;4803296;29;19974;-79
2021/01/27 15:43:17;;;;;;;;;;;;;;;8.27;52.55;100507.69;4800141;29;20401;-79
2021/01/27 15:45:44;;;;;;;;;;;;;;;8.26;52.41;100508.59;4797814;29;19929;-79
2021/01/27 16:05:43;;;;;;;;;;;;;;;8.14;53.00;100509.72;4847965;29;19996;-82
2021/01/27 17:47:52;;;;;;;;;;;;;;;8.66;47.18;100444.44;6132365;22;1453078;-76
2021/01/27 17:50:21;;;;;;;;;;;;;;;8.59;47.22;100434.97;6182239;23;19924;-77
2021/01/27 17:52:49;;;;;;;;;;;;;;;8.52;48.19;100436.84;6174102;23;19924;-77
2021/01/27 17:55:16;;;;;;;;;;;;;;;8.49;48.29;100436.94;6175236;23;20501;-77
2021/01/27 17:57:43;;;;;;;;;;;;;;;8.46;48.73;100445.78;6179709;23;20003;-76
2021/01/27 18:00:14;;;;;;;;;;;;;;;8.42;48.74;100445.88;6179682;23;19924;-76
2021/01/27 18:02:42;;;;;;;;;;;;;;;8.40;49.05;100442.41;6180858;23;19952;-76
2021/01/27 18:05:12;;;;;;;;;;;;;;;8.39;49.39;100436.28;6178910;23;19920;-76
2021/01/27 18:07:40;;;;;;;;;;;;;;;8.37;49.98;100437.22;6173530;23;19934;-77
2021/01/27 18:10:07;;;;;;;;;;;;;;;8.33;50.11;100428.50;6175417;23;19931;-77
2021/01/27 18:12:34;;;;;;;;;;;;;;;8.31;50.23;100428.53;6178316;23;20006;-77
2021/01/27 18:15:01;;;;;;;;;;;;;;;8.29;50.16;100425.06;6178227;23;19924;-77
2021/01/27 18:17:29;;;;;;;;;;;;;;;8.25;50.75;100415.50;6178474;23;19924;-77
2021/01/27 18:19:56;;;;;;;;;;;;;;;8.25;51.23;100422.53;6179423;23;20497;-77
2021/01/27 18:22:23;;;;;;;;;;;;;;;8.24;51.43;100412.91;6172654;23;19935;-77
2021/01/27 18:24:50;;;;;;;;;;;;;;;8.24;51.28;100407.63;6176229;23;19928;-78
2021/01/27 18:27:17;;;;;;;;;;;;;;;8.23;51.10;100413.78;6179719;23;19924;-77
2021/01/27 18:29:44;;;;;;;;;;;;;;;8.22;51.05;100406.78;6178045;23;19928;-77
2021/01/27 18:32:11;;;;;;;;;;;;;;;8.23;51.12;100404.09;6180224;23;19951;-76
2021/01/27 18:34:39;;;;;;;;;;;;;;;8.25;51.43;100404.09;6168025;23;20016;-77
2021/01/27 18:37:06;;;;;;;;;;;;;;;8.26;51.77;100398.78;6166193;23;20220;-76
2021/01/27 18:39:34;;;;;;;;;;;;;;;8.28;51.77;100402.22;6173222;23;19931;-79
2021/01/27 18:42:01;;;;;;;;;;;;;;;8.31;51.56;100391.66;6170510;23;19924;-77
2021/01/27 18:44:28;;;;;;;;;;;;;;;8.34;51.63;100397.72;6170162;23;19920;-78
2021/01/27 18:46:55;;;;;;;;;;;;;;;8.35;51.43;100394.19;6171098;23;19999;-77
2021/01/27 18:49:22;;;;;;;;;;;;;;;8.37;51.38;100387.97;6166776;23;19947;-76
2021/01/27 18:51:48;;;;;;;;;;;;;;;8.39;51.52;100386.19;6165595;23;19935;-78
2021/01/27 18:54:15;;;;;;;;;;;;;;;8.40;51.56;100374.72;6171152;23;19924;-77
2021/01/27 18:56:43;;;;;;;;;;;;;;;8.40;52.05;100376.50;6171246;23;20222;-76
2021/01/27 18:59:10;;;;;;;;;;;;;;;8.40;52.30;100372.09;6172929;23;19932;-77
2021/01/27 19:01:37;;;;;;;;;;;;;;;8.43;51.90;100368.50;6171142;23;20008;-77
2021/01/27 19:04:05;;;;;;;;;;;;;;;8.40;51.96;100353.63;6166905;23;19924;-81
2021/01/27 19:06:31;;;;;;;;;;;;;;;8.38;52.44;100360.72;6166193;23;20315;-77
2021/01/27 19:08:58;;;;;;;;;;;;;;;8.40;52.21;100360.69;6165035;23;19931;-77
2021/01/27 19:11:25;;;;;;;;;;;;;;;8.39;52.48;100357.19;6161042;23;19924;-77
2021/01/27 19:13:53;;;;;;;;;;;;;;;8.39;52.31;100354.56;6173982;23;19928;-77
2021/01/27 19:16:21;;;;;;;;;;;;;;;8.40;51.91;100352.78;6176598;23;20003;-76
2021/01/27 19:18:52;;;;;;;;;;;;;;;8.38;52.24;100346.66;6169202;23;19928;-77
2021/01/27 19:21:19;;;;;;;;;;;;;;;8.38;52.16;100344.91;6159747;23;20410;-76
2021/01/27 19:23:46;;;;;;;;;;;;;;;8.37;52.13;100334.41;6168215;23;19924;-77
2021/01/27 19:26:21;;;;;;;;;;;;;;;8.35;52.15;100336.22;6173415;23;19974;-77
2021/01/27 19:28:48;;;;;;;;;;;;;;;8.34;52.59;100339.75;6166026;23;20419;-77
2021/01/27 19:31:16;;;;;;;;;;;;;;;8.33;52.39;100330.97;6167594;23;19956;-76
2021/01/27 19:33:44;;;;;;;;;;;;;;;8.34;52.33;100330.09;6164777;23;20394;-76
2021/01/27 19:36:14;;;;;;;;;;;;;;;8.30;52.47;100329.28;6169891;23;19924;-77
2021/01/27 19:38:41;;;;;;;;;;;;;;;8.30;52.33;100331.91;6171363;23;19924;-76
2021/01/27 19:41:08;;;;;;;;;;;;;;;8.29;52.45;100329.31;6169244;23;19998;-77
2021/01/27 19:43:36;;;;;;;;;;;;;;;8.28;52.71;100323.16;6167935;23;19924;-76
2021/01/27 19:46:03;;;;;;;;;;;;;;;8.28;53.07;100322.31;6165277;23;19924;-77
2021/01/27 19:48:32;;;;;;;;;;;;;;;8.27;52.75;100316.19;6166369;23;19955;-77
2021/01/27 19:50:59;;;;;;;;;;;;;;;8.25;52.66;100309.22;6170859;23;19924;-77
2021/01/27 19:53:26;;;;;;;;;;;;;;;8.23;53.13;100297.84;6172402;23;19928;-77
2021/01/27 19:55:54;;;;;;;;;;;;;;;8.21;52.59;100305.78;6171348;23;20244;-77
2021/01/27 19:58:21;;;;;;;;;;;;;;;8.20;53.27;100298.78;6168374;23;19924;-77
2021/01/27 20:00:48;;;;;;;;;;;;;;;8.18;52.97;100292.72;6122128;23;20419;-78
2021/01/27 20:03:15;;;;;;;;;;;;;;;8.18;53.23;100295.34;6154433;23;20002;-78